Airfield :
LOGIN :

Register | Disclaimer

   EN    FR    IT 

 










Legend :    VFR   Marginal VFR   IFR   Intensive IFR   Very Intensive IFR
Visi :
Ceiling :
>= 8 km
>= 3000ft
5 to 8 km
1000 to 3000 ft
1500m to 5 km
500 to 1000 ft
800 to 1500m
200 to 500 ft
< 800m
< 200 ft
Symbols :   Thunderstorms  Fog  Heavy snow  Heavy precipitations  Wind > 20 kt
SIGMETs :     Misc.  Thunderstorms  Icing  Turbulence  Mountain Waves  Volcanic Ashes






- Airport Elevation : 22 ft
- IATA code : LDY


EGAE - Londonderry Eglington

CURRENT METAR :
  • 201620Z 10008KT 060V120 9999 FEW025 22/14 Q1013

EXPIRED METARs :
  • 201550Z 09009KT 9999 FEW020TCU 22/15 Q1013
  • 201520Z 09009KT 9999 FEW020TCU 22/14 Q1013
  • 201450Z 09008KT 9999 FEW020TCU 22/15 Q1013
  • 201420Z 09009KT 9999 VCSH FEW020TCU FEW025 22/15 Q1013
  • 201350Z 10010KT 070V130 9999 VCSH FEW020TCU FEW025 22/16 Q1014 REFC
  • 201320Z 05009KT 9999 FEW020TCU FEW020 21/16 Q1014
  • 201250Z 03008KT 9999 FEW020TCU FEW020 20/16 Q1014
  • 201220Z 05005KT 350V090 9999 FEW020TCU FEW020 19/16 Q1014
  • 201150Z 04005KT 360V090 9999 FEW020TCU FEW020 18/15 Q1015

TAF TAF EGAE
Valid from the 20 at 15:00 until the 20 at 21:00 UTC


201403Z 2015/2021 12009KT 9999 FEW040
PROB30
TEMPO 2015/2018 3000 +SHRA BKN014 BKN020CB



MET'MAP, your aeronautical weather chart ! - Copyright ORBIFLY December 2007 - Disclaimer

ORBIFLY MET'MAP TEAM :

Programming & Development : Alexandra Zaïnal
Original concept : Baudouin d'Aumeries
Technical & hardware support : Manuel Goepfert
Assistance : Marc-Olivier Méhu




SOURCES & CREDITS :

   NOAA